Time;durP1;ratioP1;P1;durP2;ratioP2;P2;SDS_P1;SDS_P2;PMS_P1;PMS_P2;Temp;Humidity;BMP_temperature;BMP_pressure;BME280_temperature;BME280_humidity;BME280_pressure;Samples;Min_cycle;Max_cycle;Signal;HPM_P1;HPM_P2
2021/07/18 00:01:59;;;;;;;2.83;1.63;;;;;;;19.03;96.59;101434.44;5032632;28;20822;-70
2021/07/18 00:04:26;;;;;;;5.60;2.27;;;;;;;19.03;96.17;101431.72;5032543;28;21017;-70
2021/07/18 00:06:53;;;;;;;5.93;1.63;;;;;;;18.96;96.25;101432.28;5032949;28;20505;-69
2021/07/18 00:09:20;;;;;;;1.80;1.40;;;;;;;18.94;96.00;101429.03;5032712;28;20467;-71
2021/07/18 00:11:46;;;;;;;2.97;1.57;;;;;;;18.83;96.85;101428.66;5032875;28;20451;-70
2021/07/18 00:14:13;;;;;;;7.97;3.07;;;;;;;18.76;97.80;101428.38;5032814;28;20446;-71
2021/07/18 00:16:39;;;;;;;11.10;3.47;;;;;;;18.68;97.94;101426.47;5033737;28;20455;-69
2021/07/18 00:19:07;;;;;;;3.70;2.30;;;;;;;18.69;97.97;101428.16;5036502;28;20470;-70
2021/07/18 00:21:33;;;;;;;11.87;2.43;;;;;;;18.70;97.45;101437.19;5036515;28;20788;-69
2021/07/18 00:24:03;;;;;;;2.60;1.97;;;;;;;18.64;97.54;101431.06;5036522;28;20447;-69
2021/07/18 00:26:29;;;;;;;3.13;1.90;;;;;;;18.59;97.75;101433.97;5037840;28;20431;-71
2021/07/18 00:28:56;;;;;;;2.00;1.80;;;;;;;18.60;97.86;101428.19;5036582;28;20466;-71
2021/07/18 00:31:22;;;;;;;1.70;1.40;;;;;;;18.52;97.98;101429.03;5036363;28;20454;-70
2021/07/18 00:33:49;;;;;;;5.40;1.80;;;;;;;18.41;98.56;101427.81;5036610;28;20443;-71
2021/07/18 00:36:15;;;;;;;3.60;1.53;;;;;;;18.24;99.41;101430.66;5036374;28;20454;-71
2021/07/18 00:38:42;;;;;;;2.00;1.30;;;;;;;18.35;99.18;101429.16;5036161;28;20490;-71
2021/07/18 00:41:09;;;;;;;1.90;1.20;;;;;;;18.27;99.39;101427.28;5036236;28;20455;-69
2021/07/18 00:43:36;;;;;;;3.40;1.40;;;;;;;18.20;99.68;101432.50;5036138;28;20451;-70
2021/07/18 00:46:02;;;;;;;1.20;1.00;;;;;;;18.24;99.67;101428.75;5056520;22;20507;-82
2021/07/18 00:48:31;;;;;;;2.80;1.40;;;;;;;18.23;99.28;101427.13;5033608;28;20451;-82
2021/07/18 00:50:59;;;;;;;1.10;0.87;;;;;;;18.17;99.43;101422.97;5037601;28;20807;-82
2021/07/18 00:53:26;;;;;;;2.43;1.03;;;;;;;18.20;99.20;101414.09;5037654;28;20500;-82
2021/07/18 00:55:55;;;;;;;1.30;1.20;;;;;;;18.21;99.04;101421.19;5061695;23;20498;-69
2021/07/18 00:58:25;;;;;;;1.50;1.30;;;;;;;18.17;99.11;101412.00;5055719;28;20486;-67
2021/07/18 01:00:51;;;;;;;1.93;1.30;;;;;;;18.17;99.26;101416.69;5055709;28;20517;-69
2021/07/18 01:03:19;;;;;;;1.20;1.10;;;;;;;18.14;99.05;101421.69;5055708;28;20438;-67
2021/07/18 01:05:45;;;;;;;1.73;1.13;;;;;;;18.09;99.17;101421.88;5055349;28;20943;-68
2021/07/18 01:08:11;;;;;;;2.30;1.17;;;;;;;18.00;99.56;101420.34;5055689;28;20442;-69
2021/07/18 01:10:38;;;;;;;1.47;1.27;;;;;;;17.90;99.85;101418.78;5055573;28;20441;-69
2021/07/18 01:13:05;;;;;;;1.03;0.87;;;;;;;17.98;99.59;101425.34;5055391;28;20437;-68
2021/07/18 01:15:32;;;;;;;2.97;1.67;;;;;;;17.86;100.00;101424.09;5055479;28;20442;-70
2021/07/18 01:17:59;;;;;;;3.10;1.67;;;;;;;17.90;100.00;101421.50;5055432;28;20488;-68
2021/07/18 01:20:26;;;;;;;1.23;1.13;;;;;;;17.86;100.00;101417.81;5055474;28;20825;-68
2021/07/18 01:22:55;;;;;;;2.30;1.63;;;;;;;17.89;100.00;101428.13;5055415;28;20447;-69
2021/07/18 01:25:21;;;;;;;1.80;1.13;;;;;;;17.87;100.00;101422.16;5055467;28;20446;-69
2021/07/18 01:27:49;;;;;;;2.27;1.70;;;;;;;17.91;99.66;101428.59;5054534;28;20458;-69
2021/07/18 01:30:15;;;;;;;3.00;1.20;;;;;;;17.87;99.63;101428.44;5055098;28;20449;-69
2021/07/18 01:32:43;;;;;;;1.27;0.70;;;;;;;17.87;99.42;101425.72;5054866;28;20812;-69
2021/07/18 01:35:11;;;;;;;3.83;1.50;;;;;;;17.83;99.64;101424.75;5055080;28;20478;-68
2021/07/18 01:37:38;;;;;;;1.27;1.17;;;;;;;17.78;99.40;101421.41;5054733;28;20539;-68
2021/07/18 01:40:07;;;;;;;3.93;1.13;;;;;;;17.71;99.67;101419.16;5055110;28;20446;-68
2021/07/18 01:42:34;;;;;;;2.97;1.37;;;;;;;17.75;99.64;101425.63;5054946;28;20441;-68
2021/07/18 01:45:00;;;;;;;2.20;1.50;;;;;;;17.74;99.62;101415.78;5055000;28;20442;-69
2021/07/18 01:47:27;;;;;;;1.73;1.30;;;;;;;17.76;99.39;101419.00;5054860;28;20458;-69
2021/07/18 01:49:53;;;;;;;2.50;0.97;;;;;;;17.74;99.30;101415.78;5054862;28;20492;-69
2021/07/18 01:52:19;;;;;;;1.93;1.10;;;;;;;17.79;99.02;101418.31;5054904;28;20862;-69
2021/07/18 01:54:46;;;;;;;1.17;0.90;;;;;;;17.79;98.86;101423.00;5054469;28;20958;-68
2021/07/18 01:57:15;;;;;;;1.57;1.07;;;;;;;17.77;98.80;101428.03;5054851;28;20465;-68
2021/07/18 01:59:42;;;;;;;1.43;0.87;;;;;;;17.76;98.70;101429.16;5054663;28;20868;-69
2021/07/18 02:02:09;;;;;;;1.80;1.30;;;;;;;17.81;99.05;101437.19;5054411;28;20446;-67
2021/07/18 02:04:35;;;;;;;1.80;0.80;;;;;;;17.80;98.31;101436.41;5054592;28;20437;-69
2021/07/18 02:07:03;;;;;;;3.87;1.23;;;;;;;17.83;97.87;101441.19;5054559;28;20817;-67
2021/07/18 02:09:29;;;;;;;1.60;1.13;;;;;;;17.85;97.84;101438.16;5054515;28;20438;-69
2021/07/18 02:11:56;;;;;;;1.27;1.03;;;;;;;17.77;97.75;101437.03;5054410;28;20445;-68
2021/07/18 02:14:24;;;;;;;1.33;1.00;;;;;;;17.72;96.96;101434.47;5054445;28;20465;-69
2021/07/18 02:16:52;;;;;;;1.10;0.90;;;;;;;17.66;98.29;101433.00;5054245;28;20477;-65
2021/07/18 02:19:18;;;;;;;2.83;1.10;;;;;;;17.73;98.09;101429.78;5054182;28;20478;-68
2021/07/18 02:21:45;;;;;;;1.77;1.00;;;;;;;17.70;98.08;101423.00;5053962;28;20935;-68
2021/07/18 02:24:11;;;;;;;1.83;0.80;;;;;;;17.65;98.21;101431.41;5054169;28;20440;-69
2021/07/18 02:26:38;;;;;;;1.33;1.10;;;;;;;17.62;98.06;101426.63;5054034;28;20465;-69
2021/07/18 02:29:05;;;;;;;1.23;0.93;;;;;;;17.63;97.93;101420.78;5054196;28;20842;-68
2021/07/18 02:31:33;;;;;;;1.77;1.20;;;;;;;17.61;96.84;101425.78;5054072;28;20446;-68
2021/07/18 02:33:59;;;;;;;2.10;1.20;;;;;;;17.64;97.84;101418.84;5054140;28;20434;-68
2021/07/18 02:36:26;;;;;;;2.07;1.10;;;;;;;17.68;97.84;101427.22;5053669;28;21002;-68
2021/07/18 02:38:54;;;;;;;1.60;1.20;;;;;;;17.65;97.99;101429.47;5053137;28;20543;-69
2021/07/18 02:41:20;;;;;;;1.70;1.10;;;;;;;17.63;98.54;101426.28;5053782;28;20537;-68
2021/07/18 02:43:47;;;;;;;1.73;1.07;;;;;;;17.59;99.02;101419.03;5053890;28;20446;-69
2021/07/18 02:46:13;;;;;;;2.23;1.10;;;;;;;17.58;99.55;101418.25;5053642;28;20469;-68
2021/07/18 02:48:41;;;;;;;1.30;1.00;;;;;;;17.61;98.76;101416.75;5053752;28;20446;-69
2021/07/18 02:51:08;;;;;;;3.90;1.13;;;;;;;17.54;98.80;101420.03;5053800;28;20446;-68
2021/07/18 02:53:34;;;;;;;1.30;0.90;;;;;;;17.54;99.21;101420.03;5053659;28;20446;-70
2021/07/18 02:56:01;;;;;;;1.83;0.97;;;;;;;17.57;99.95;101422.09;5053270;28;20470;-69
2021/07/18 02:58:27;;;;;;;1.90;1.00;;;;;;;17.53;100.00;101418.41;5053605;28;20478;-69
2021/07/18 03:00:54;;;;;;;4.90;2.73;;;;;;;17.54;100.00;101417.28;5053635;28;20438;-68
2021/07/18 03:03:20;;;;;;;0.90;0.70;;;;;;;17.58;100.00;101417.44;5053533;28;20430;-67
2021/07/18 03:05:48;;;;;;;1.50;1.00;;;;;;;17.51;100.00;101409.72;5053501;28;20451;-68
2021/07/18 03:08:15;;;;;;;1.90;0.97;;;;;;;17.51;100.00;101406.16;5053155;28;20943;-68
2021/07/18 03:10:41;;;;;;;1.63;0.90;;;;;;;17.56;99.68;101408.72;5053528;28;20453;-69
2021/07/18 03:13:08;;;;;;;1.50;1.00;;;;;;;17.55;100.00;101412.59;5053155;28;20514;-69
2021/07/18 03:15:34;;;;;;;1.93;1.10;;;;;;;17.56;100.00;101419.69;5053331;28;20808;-70
2021/07/18 03:18:02;;;;;;;1.40;0.97;;;;;;;17.58;100.00;101417.44;5053348;28;20504;-70
2021/07/18 03:20:29;;;;;;;3.80;1.53;;;;;;;17.60;100.00;101404.19;5053380;28;20446;-69
2021/07/18 03:22:56;;;;;;;2.07;1.30;;;;;;;17.64;100.00;101407.91;5053265;28;20450;-69
2021/07/18 03:25:23;;;;;;;1.37;1.23;;;;;;;17.66;99.67;101400.13;5053066;28;20431;-69
2021/07/18 03:27:49;;;;;;;1.50;1.00;;;;;;;17.62;99.35;101402.75;5053228;28;20829;-69
2021/07/18 03:30:18;;;;;;;1.63;1.37;;;;;;;17.61;99.58;101403.06;5053329;28;20572;-69
2021/07/18 03:32:44;;;;;;;1.63;1.20;;;;;;;17.57;99.15;101405.66;5053245;28;20449;-70
2021/07/18 03:35:12;;;;;;;1.47;1.13;;;;;;;17.55;99.68;101398.91;5053199;28;20445;-69
2021/07/18 03:37:38;;;;;;;1.73;0.93;;;;;;;17.46;99.64;101400.88;5053042;28;20462;-70
2021/07/18 03:40:09;;;;;;;2.50;1.07;;;;;;;17.41;100.00;101396.38;5053205;28;20438;-70
2021/07/18 03:42:36;;;;;;;1.00;0.77;;;;;;;17.39;100.00;101399.44;5053171;28;20434;-70
2021/07/18 03:45:03;;;;;;;1.47;0.73;;;;;;;17.37;100.00;101403.63;5053413;28;20435;-70
2021/07/18 03:47:30;;;;;;;1.73;0.97;;;;;;;17.33;100.00;101398.00;5052862;28;20817;-69
2021/07/18 03:49:56;;;;;;;1.40;0.90;;;;;;;17.36;100.00;101394.63;5053150;28;20445;-69
2021/07/18 03:52:22;;;;;;;1.43;1.00;;;;;;;17.47;100.00;101402.47;5055382;28;20442;-69
2021/07/18 03:54:49;;;;;;;1.00;0.70;;;;;;;17.34;100.00;101396.88;5057204;28;20469;-69
2021/07/18 03:57:17;;;;;;;3.60;0.87;;;;;;;17.45;100.00;101399.28;5057064;28;20462;-70
2021/07/18 03:59:43;;;;;;;1.30;0.83;;;;;;;17.36;100.00;101405.59;5057070;28;20488;-70
2021/07/18 04:02:10;;;;;;;1.13;0.77;;;;;;;17.48;100.00;101413.09;5056872;28;20445;-69
2021/07/18 04:04:36;;;;;;;3.43;1.00;;;;;;;17.54;100.00;101411.00;5056648;28;20796;-74
2021/07/18 04:07:03;;;;;;;1.70;1.00;;;;;;;17.62;100.00;101415.66;5056766;28;20462;-69
2021/07/18 04:09:29;;;;;;;0.97;0.80;;;;;;;17.70;100.00;101412.06;5056815;28;20445;-68
2021/07/18 04:11:56;;;;;;;2.30;1.17;;;;;;;17.72;100.00;101417.22;5056781;28;20446;-68
2021/07/18 04:14:24;;;;;;;1.10;0.83;;;;;;;17.71;100.00;101419.16;5056646;28;20446;-68
2021/07/18 04:16:50;;;;;;;1.60;0.90;;;;;;;17.70;100.00;101412.06;5056574;28;20844;-69
2021/07/18 04:19:16;;;;;;;0.90;0.70;;;;;;;17.63;100.00;101414.50;5056508;28;20486;-68
2021/07/18 04:21:43;;;;;;;0.93;0.53;;;;;;;17.64;100.00;101416.13;5056552;28;20521;-68
2021/07/18 04:24:09;;;;;;;1.20;1.07;;;;;;;17.67;100.00;101412.72;5056569;28;20441;-69
2021/07/18 04:26:36;;;;;;;1.53;0.87;;;;;;;17.73;100.00;101418.81;5056378;28;20856;-69
2021/07/18 04:29:02;;;;;;;2.03;1.10;;;;;;;17.77;100.00;101428.81;5056316;28;20438;-68
2021/07/18 04:31:30;;;;;;;1.00;0.83;;;;;;;17.81;100.00;101432.53;5056170;28;20953;-69
2021/07/18 04:33:57;;;;;;;3.27;1.13;;;;;;;17.86;100.00;101435.06;5056364;28;20866;-68
2021/07/18 04:36:23;;;;;;;2.13;0.90;;;;;;;17.89;100.00;101439.09;5055953;28;20841;-69
2021/07/18 04:38:50;;;;;;;2.97;0.90;;;;;;;17.90;100.00;101435.22;5056218;28;20483;-69
2021/07/18 04:41:16;;;;;;;2.17;0.83;;;;;;;17.96;100.00;101441.31;5056173;28;20446;-69
2021/07/18 04:43:45;;;;;;;1.40;1.00;;;;;;;18.00;100.00;101436.78;5056038;28;20450;-68
2021/07/18 04:46:12;;;;;;;1.13;0.87;;;;;;;18.01;100.00;101438.38;5056170;28;20466;-70
2021/07/18 04:48:40;;;;;;;0.90;0.67;;;;;;;18.05;100.00;101442.06;5056072;28;20448;-69
2021/07/18 04:51:07;;;;;;;1.73;0.87;;;;;;;18.06;100.00;101443.69;5056008;28;20477;-69
2021/07/18 04:53:33;;;;;;;0.93;0.83;;;;;;;18.05;100.00;101442.06;5055616;28;20935;-70
2021/07/18 04:55:59;;;;;;;1.13;1.00;;;;;;;18.12;100.00;101436.88;5055482;28;20481;-70
2021/07/18 04:58:26;;;;;;;1.27;0.90;;;;;;;18.14;100.00;101440.88;5055848;28;20493;-69
2021/07/18 05:00:52;;;;;;;0.93;0.67;;;;;;;18.24;100.00;101438.91;5055542;28;20815;-69
2021/07/18 05:03:19;;;;;;;2.97;1.30;;;;;;;18.28;99.92;101446.16;5055711;28;20442;-68
2021/07/18 05:05:46;;;;;;;1.47;0.87;;;;;;;18.33;99.48;101443.22;5055389;28;20438;-69
2021/07/18 05:08:13;;;;;;;3.37;1.30;;;;;;;18.32;99.51;101452.56;5055722;28;20534;-69
2021/07/18 05:10:39;;;;;;;1.97;0.60;;;;;;;18.39;99.69;101450.09;5055432;28;20795;-69
2021/07/18 05:13:06;;;;;;;3.13;0.80;;;;;;;18.44;99.11;101454.59;5055286;28;20996;-70
2021/07/18 05:15:34;;;;;;;3.70;1.27;;;;;;;18.51;99.32;101449.41;5055592;28;20515;-70
2021/07/18 05:18:10;;;;;;;1.50;0.93;;;;;;;18.56;99.31;101445.66;5055645;28;20531;-70
2021/07/18 05:20:36;;;;;;;1.43;1.27;;;;;;;18.63;99.17;101445.91;5055556;28;20469;-70
2021/07/18 05:23:04;;;;;;;1.30;0.90;;;;;;;18.65;98.73;101446.38;5055413;28;20450;-70
2021/07/18 05:25:31;;;;;;;1.50;0.90;;;;;;;18.66;99.25;101456.22;5055466;28;20500;-69
2021/07/18 05:27:57;;;;;;;0.80;0.70;;;;;;;18.72;99.24;101451.34;5055216;28;20474;-69
2021/07/18 05:30:24;;;;;;;1.40;0.90;;;;;;;18.81;99.41;101446.59;5055290;28;20449;-69
2021/07/18 05:32:50;;;;;;;1.70;1.07;;;;;;;18.79;99.52;101449.69;5054828;28;20453;-69
2021/07/18 05:35:17;;;;;;;1.83;1.50;;;;;;;18.85;98.69;101442.84;5055161;28;20446;-68
2021/07/18 05:37:43;;;;;;;1.97;1.07;;;;;;;18.90;98.44;101450.91;5055038;28;20461;-69
2021/07/18 05:40:13;;;;;;;1.10;0.83;;;;;;;18.99;98.47;101461.81;5054718;28;21024;-68
2021/07/18 05:42:40;;;;;;;1.07;0.97;;;;;;;19.05;98.00;101457.69;5054648;28;20955;-68
2021/07/18 05:45:08;;;;;;;1.50;0.90;;;;;;;19.08;98.60;101464.44;5055074;28;20453;-69
2021/07/18 05:47:35;;;;;;;1.10;1.00;;;;;;;19.14;98.36;101472.16;5054588;28;20975;-70
2021/07/18 05:50:02;;;;;;;1.80;1.30;;;;;;;19.19;98.59;101459.34;5054885;28;20446;-69
2021/07/18 05:52:29;;;;;;;2.07;1.00;;;;;;;19.24;98.33;101468.19;5054548;28;20447;-68
2021/07/18 05:54:55;;;;;;;1.73;0.87;;;;;;;19.26;98.06;101460.44;5054643;28;20457;-68
2021/07/18 05:57:23;;;;;;;1.50;1.20;;;;;;;19.27;97.43;101463.97;5054605;28;20466;-68
2021/07/18 05:59:50;;;;;;;1.93;1.17;;;;;;;19.27;97.97;101459.28;5054678;28;20482;-68
2021/07/18 06:02:16;;;;;;;2.03;1.07;;;;;;;19.29;97.70;101473.47;5054349;28;20844;-68
2021/07/18 06:04:43;;;;;;;1.63;1.20;;;;;;;19.38;98.03;101465.13;5054369;28;20873;-69
2021/07/18 06:07:10;;;;;;;1.60;1.00;;;;;;;19.48;97.08;101470.22;5054529;28;20465;-67
2021/07/18 06:09:36;;;;;;;1.07;0.90;;;;;;;19.54;96.44;101468.03;5054465;28;20445;-69
2021/07/18 06:12:03;;;;;;;3.93;1.27;;;;;;;19.63;96.11;101461.34;5054118;28;20450;-68
2021/07/18 06:14:31;;;;;;;1.40;0.70;;;;;;;19.70;96.11;101465.47;5053903;28;20442;-68
2021/07/18 06:16:58;;;;;;;3.27;1.10;;;;;;;19.69;95.24;101466.59;5054329;28;20515;-68
2021/07/18 06:19:24;;;;;;;1.90;1.10;;;;;;;19.81;94.78;101467.44;5054507;28;20486;-68
2021/07/18 06:21:51;;;;;;;1.67;1.03;;;;;;;19.82;94.53;101473.72;5054291;28;20788;-68
2021/07/18 06:24:18;;;;;;;1.80;1.20;;;;;;;19.84;93.78;101477.75;5054277;28;20442;-68
2021/07/18 06:26:44;;;;;;;0.90;0.60;;;;;;;19.96;94.63;101467.91;5054136;28;20493;-68
2021/07/18 06:29:11;;;;;;;3.67;1.37;;;;;;;20.07;93.86;101469.06;5054106;28;20442;-68
2021/07/18 06:31:38;;;;;;;1.50;1.10;;;;;;;20.13;93.32;101473.19;5054104;28;20450;-66
2021/07/18 06:34:05;;;;;;;1.63;0.83;;;;;;;20.16;93.31;101476.03;5053987;28;20446;-68
2021/07/18 06:36:31;;;;;;;2.50;0.60;;;;;;;20.27;92.65;101472.81;5053584;28;20486;-70
2021/07/18 06:39:00;;;;;;;0.73;0.70;;;;;;;20.33;92.31;101477.75;5053836;28;20486;-68
2021/07/18 06:41:27;;;;;;;1.60;1.17;;;;;;;20.37;93.02;101483.38;5054040;28;20520;-68
2021/07/18 06:43:53;;;;;;;1.53;0.90;;;;;;;20.48;92.55;101483.72;5053891;28;20454;-68
2021/07/18 06:46:20;;;;;;;2.70;0.93;;;;;;;20.55;91.84;101478.47;5078079;22;20458;-71
2021/07/18 06:48:47;;;;;;;0.93;0.83;;;;;;;20.69;92.06;101483.59;5052127;28;20482;-70
2021/07/18 06:51:14;;;;;;;1.50;0.93;;;;;;;20.73;91.17;101482.53;5052658;28;20441;-71
2021/07/18 06:53:40;;;;;;;1.53;0.90;;;;;;;20.80;91.78;101479.19;5052555;28;20469;-71
2021/07/18 06:56:07;;;;;;;1.03;0.70;;;;;;;20.89;89.99;101482.59;5052833;28;20438;-71
2021/07/18 06:58:33;;;;;;;1.67;0.93;;;;;;;20.91;89.46;101481.09;5072563;28;20468;-75
2021/07/18 07:01:00;;;;;;;1.60;1.30;;;;;;;20.95;89.37;101485.94;5072010;28;20993;-74
2021/07/18 07:03:26;;;;;;;1.03;0.77;;;;;;;21.02;89.57;101483.38;5072760;28;20438;-73
2021/07/18 07:05:54;;;;;;;1.73;1.30;;;;;;;21.12;89.06;101489.19;5072713;28;20861;-73
2021/07/18 07:08:20;;;;;;;1.10;0.90;;;;;;;21.14;88.90;101488.84;5072597;28;20461;-73
2021/07/18 07:10:48;;;;;;;4.10;1.27;;;;;;;21.21;88.57;101486.28;5072507;28;20438;-73
2021/07/18 07:13:15;;;;;;;2.00;1.10;;;;;;;21.20;89.25;101487.41;5072636;28;20888;-73
2021/07/18 07:15:41;;;;;;;1.60;0.97;;;;;;;21.21;89.17;101489.03;5072261;28;20810;-73
2021/07/18 07:18:08;;;;;;;1.23;0.90;;;;;;;21.32;88.23;101483.84;5072478;28;20465;-73
2021/07/18 07:20:34;;;;;;;8.13;1.17;;;;;;;21.38;87.79;101490.69;5072424;28;20481;-73
2021/07/18 07:23:02;;;;;;;2.07;0.93;;;;;;;21.41;86.09;101490.78;5072546;28;20849;-73
2021/07/18 07:25:29;;;;;;;1.27;0.80;;;;;;;21.55;85.86;101487.63;5072019;28;20450;-73
2021/07/18 07:27:55;;;;;;;1.90;0.80;;;;;;;21.69;84.58;101486.38;5071610;28;20472;-73
2021/07/18 07:30:22;;;;;;;2.63;1.27;;;;;;;21.71;84.08;101473.06;5072055;28;20856;-72
2021/07/18 07:32:48;;;;;;;0.87;0.67;;;;;;;21.76;85.49;101475.53;5071991;28;20976;-73
2021/07/18 07:35:16;;;;;;;2.83;0.90;;;;;;;21.80;84.91;101474.47;5071979;28;20946;-72
2021/07/18 07:37:43;;;;;;;1.90;0.60;;;;;;;21.87;86.83;101471.13;5072147;28;20485;-73
2021/07/18 07:40:13;;;;;;;1.40;0.90;;;;;;;21.92;83.50;101468.09;5076197;28;20480;-73
2021/07/18 07:42:40;;;;;;;2.50;0.90;;;;;;;21.97;81.76;101473.31;5072645;28;20437;-73
2021/07/18 07:45:09;;;;;;;1.17;1.07;;;;;;;22.01;81.97;101473.41;5072178;28;20440;-73
2021/07/18 07:47:35;;;;;;;1.10;1.00;;;;;;;22.05;80.28;101471.56;5036767;28;1017619;-74
2021/07/18 07:50:03;;;;;;;0.87;0.80;;;;;;;22.08;79.55;101479.09;5072986;28;20375;-74
2021/07/18 07:52:29;;;;;;;0.80;0.63;;;;;;;22.17;79.52;101474.22;5072991;28;20520;-74
2021/07/18 07:54:56;;;;;;;0.80;0.60;;;;;;;22.22;79.38;101476.69;5072612;28;20957;-74
2021/07/18 07:57:23;;;;;;;0.87;0.80;;;;;;;22.22;81.63;101476.69;5072846;28;20468;-73
2021/07/18 07:59:50;;;;;;;1.90;0.80;;;;;;;22.26;78.91;101469.31;5072838;28;20488;-72
2021/07/18 08:02:16;;;;;;;1.23;1.03;;;;;;;22.33;77.44;101472.25;5072876;28;20819;-73
2021/07/18 08:04:43;;;;;;;1.30;1.10;;;;;;;22.35;78.11;101471.88;5072463;28;20449;-73
2021/07/18 08:07:09;;;;;;;1.20;0.80;;;;;;;22.39;78.39;101473.53;5072743;28;20461;-73
2021/07/18 08:09:36;;;;;;;1.90;1.13;;;;;;;22.43;76.86;101468.13;5072794;28;20437;-73
2021/07/18 08:12:02;;;;;;;1.13;1.03;;;;;;;22.51;77.07;101458.84;5072744;28;20468;-72
2021/07/18 08:14:30;;;;;;;1.10;0.90;;;;;;;22.65;75.54;101463.84;5072463;28;20437;-72
2021/07/18 08:16:57;;;;;;;1.13;0.60;;;;;;;22.65;72.56;101467.41;5072393;28;21001;-73
2021/07/18 08:19:23;;;;;;;2.10;0.90;;;;;;;22.72;73.37;101466.78;5072581;28;20449;-72
2021/07/18 08:21:50;;;;;;;1.20;1.07;;;;;;;22.71;74.40;101469.88;5072658;28;20441;-73
2021/07/18 08:24:16;;;;;;;1.40;0.97;;;;;;;22.80;73.83;101471.31;5072613;28;20445;-73
2021/07/18 08:26:42;;;;;;;1.50;1.20;;;;;;;22.86;72.74;101471.81;5072520;28;20464;-75
2021/07/18 08:29:09;;;;;;;1.10;0.70;;;;;;;22.86;70.76;101469.03;5072290;28;20452;-74
2021/07/18 08:31:37;;;;;;;2.17;0.90;;;;;;;22.90;72.50;101462.47;5072656;28;20448;-74
2021/07/18 08:34:03;;;;;;;1.00;0.70;;;;;;;22.95;73.51;101466.91;5072523;28;20850;-71
2021/07/18 08:36:30;;;;;;;0.70;0.70;;;;;;;23.03;72.55;101473.38;5072178;28;20454;-71
2021/07/18 08:38:56;;;;;;;1.13;0.97;;;;;;;23.07;71.97;101472.28;5075336;28;20446;-70
2021/07/18 08:41:23;;;;;;;0.70;0.60;;;;;;;23.10;73.28;101473.50;5076081;28;20492;-71
2021/07/18 08:43:51;;;;;;;0.83;0.80;;;;;;;23.16;73.78;101464.56;5076049;28;20563;-69
2021/07/18 08:46:18;;;;;;;1.40;0.90;;;;;;;23.22;74.88;101476.13;5075892;28;20441;-70
2021/07/18 08:48:47;;;;;;;1.40;1.20;;;;;;;23.22;73.48;101467.03;5076061;28;20426;-71
2021/07/18 08:51:14;;;;;;;1.37;0.83;;;;;;;23.25;73.74;101460.78;5076189;28;20438;-70
2021/07/18 08:53:41;;;;;;;2.17;1.00;;;;;;;23.26;72.26;101467.88;5076049;28;20964;-74
2021/07/18 08:56:08;;;;;;;1.60;0.80;;;;;;;23.32;71.92;101467.22;5075723;28;20946;-76
2021/07/18 08:58:36;;;;;;;2.17;1.10;;;;;;;23.39;71.80;101466.56;5075912;28;20468;-76
2021/07/18 09:01:02;;;;;;;3.67;1.00;;;;;;;23.46;71.71;101463.09;5075918;28;20835;-76
2021/07/18 09:03:29;;;;;;;2.07;1.10;;;;;;;23.51;70.84;101462.84;5075806;28;20444;-77
2021/07/18 09:06:07;;;;;;;0.87;0.63;;;;;;;23.57;70.48;101464.13;5075794;28;20441;-76
2021/07/18 09:08:41;;;;;;;1.33;0.87;;;;;;;23.64;70.73;101467.00;5075898;28;20495;-75
2021/07/18 09:11:16;;;;;;;1.00;0.80;;;;;;;23.65;71.43;101469.44;5076242;28;20850;-77
2021/07/18 09:13:55;;;;;;;0.80;0.70;;;;;;;23.67;72.33;101456.03;5075937;28;20418;-77
2021/07/18 09:16:26;;;;;;;2.10;1.83;;;;;;;23.78;71.90;101464.50;5076424;28;20429;-77
2021/07/18 09:18:53;;;;;;;2.20;0.90;;;;;;;23.84;70.91;101465.78;5075556;28;20483;-73
2021/07/18 09:21:20;;;;;;;0.83;0.70;;;;;;;23.92;71.12;101461.97;5075621;28;20488;-75
2021/07/18 09:23:47;;;;;;;0.77;0.77;;;;;;;23.99;70.00;101463.25;5075512;28;20468;-76
2021/07/18 09:26:18;;;;;;;1.10;0.70;;;;;;;24.08;71.91;101461.03;5075369;28;20438;-75
2021/07/18 09:28:44;;;;;;;1.20;0.67;;;;;;;24.10;69.08;101461.47;5075498;28;20900;-75
2021/07/18 09:31:29;;;;;;;1.57;0.90;;;;;;;24.16;68.79;101462.72;5075511;28;20487;-76
2021/07/18 09:34:11;;;;;;;0.67;0.53;;;;;;;24.21;67.15;101465.19;5075447;28;20437;-76
2021/07/18 09:36:39;;;;;;;1.10;0.60;;;;;;;24.26;68.03;101475.13;5075255;28;20458;-76
2021/07/18 09:39:07;;;;;;;1.10;0.80;;;;;;;24.29;67.15;101463.31;5079078;28;20433;-76
2021/07/18 09:41:35;;;;;;;1.47;1.00;;;;;;;24.35;68.44;101462.63;5078022;28;20489;-75
2021/07/18 09:44:02;;;;;;;1.17;0.80;;;;;;;24.41;68.35;101463.94;5077246;28;20862;-76
2021/07/18 09:46:31;;;;;;;1.60;0.80;;;;;;;24.44;68.90;101459.63;5076399;28;20445;-76
2021/07/18 09:48:59;;;;;;;2.47;1.30;;;;;;;24.52;68.82;101461.31;5075251;28;20460;-76
2021/07/18 09:51:25;;;;;;;1.20;0.73;;;;;;;24.56;68.19;101453.84;5076188;28;20476;-76
2021/07/18 09:54:08;;;;;;;1.90;1.00;;;;;;;24.57;67.98;101454.63;5075351;28;20433;-75
2021/07/18 09:56:34;;;;;;;1.70;0.70;;;;;;;24.65;68.30;101453.56;5075291;28;20456;-76
2021/07/18 09:59:01;;;;;;;1.53;1.00;;;;;;;24.70;69.20;101461.53;5075094;28;20449;-78
2021/07/18 10:01:27;;;;;;;0.93;0.77;;;;;;;24.73;69.67;101458.03;5075264;28;20489;-76
2021/07/18 10:03:56;;;;;;;2.10;0.90;;;;;;;24.79;69.81;101459.31;5074969;28;20430;-76
2021/07/18 10:06:25;;;;;;;1.17;0.90;;;;;;;24.94;69.24;101465.81;5074726;28;20449;-76
2021/07/18 10:08:53;;;;;;;0.90;0.50;;;;;;;25.11;68.41;101464.47;5074847;28;20441;-74
2021/07/18 10:11:22;;;;;;;0.90;0.80;;;;;;;25.03;66.04;101457.19;5074877;28;20437;-73
2021/07/18 10:13:50;;;;;;;1.10;1.00;;;;;;;25.00;68.16;101449.63;5074062;28;20525;-75
2021/07/18 10:16:19;;;;;;;1.40;1.10;;;;;;;25.09;70.64;101441.84;5073930;28;20938;-75
2021/07/18 10:18:48;;;;;;;0.80;0.70;;;;;;;25.26;69.01;101449.56;5073955;28;20460;-75
2021/07/18 10:21:18;;;;;;;1.20;1.10;;;;;;;25.32;67.05;101448.03;5074081;28;20481;-75
2021/07/18 10:23:46;;;;;;;1.73;1.30;;;;;;;25.40;67.80;101441.38;5074180;28;20445;-71
2021/07/18 10:26:14;;;;;;;1.60;1.20;;;;;;;25.47;67.05;101434.31;5073713;28;21009;-73
2021/07/18 10:28:42;;;;;;;1.07;0.97;;;;;;;25.44;65.15;101443.38;5074072;28;20452;-73
2021/07/18 10:31:12;;;;;;;1.47;0.70;;;;;;;25.37;64.10;101433.81;5074034;28;20434;-73
2021/07/18 10:33:42;;;;;;;3.40;1.30;;;;;;;25.40;65.56;101438.59;5073937;28;20471;-72
2021/07/18 10:36:10;;;;;;;0.60;0.50;;;;;;;25.33;65.17;101435.78;5073654;28;20934;-73
2021/07/18 10:38:37;;;;;;;1.60;1.00;;;;;;;25.31;65.27;101434.53;5074069;28;20437;-73
2021/07/18 10:41:03;;;;;;;0.70;0.63;;;;;;;25.33;64.78;101444.09;5073880;28;20477;-75
2021/07/18 10:43:42;;;;;;;0.90;0.80;;;;;;;25.42;66.13;101425.16;5073763;28;20448;-74
2021/07/18 10:46:10;;;;;;;1.73;1.00;;;;;;;25.45;65.22;101428.34;5073786;28;20421;-74
2021/07/18 10:48:48;;;;;;;1.60;0.73;;;;;;;25.63;66.77;101426.50;5073817;28;20457;-75
2021/07/18 10:51:16;;;;;;;0.80;0.80;;;;;;;25.65;65.97;101433.28;5073728;28;20791;-75
2021/07/18 10:53:42;;;;;;;1.13;0.73;;;;;;;25.69;65.76;101433.31;5073715;28;20453;-74
2021/07/18 10:56:09;;;;;;;0.93;0.80;;;;;;;25.86;64.81;101431.91;5073569;28;20452;-75
2021/07/18 10:58:52;;;;;;;0.60;0.60;;;;;;;25.99;63.99;101416.53;5073641;28;20429;-75
2021/07/18 11:01:39;;;;;;;0.97;0.60;;;;;;;26.12;64.99;101431.69;5073436;28;20511;-74
2021/07/18 11:04:27;;;;;;;1.57;1.23;;;;;;;26.15;61.12;101425.34;5073527;28;20433;-75
2021/07/18 11:07:23;;;;;;;1.53;0.90;;;;;;;26.24;61.33;101429.75;5073262;28;20469;-74
2021/07/18 11:09:51;;;;;;;0.83;0.67;;;;;;;26.36;61.51;101430.22;5073556;28;20433;-75
2021/07/18 11:12:22;;;;;;;1.43;0.97;;;;;;;26.66;62.23;101424.47;5073457;28;20810;-75
2021/07/18 11:14:50;;;;;;;0.70;0.70;;;;;;;26.74;60.54;101424.47;5073402;28;20425;-75
2021/07/18 11:17:25;;;;;;;1.63;1.00;;;;;;;26.71;59.21;101420.50;5073218;28;20461;-75
2021/07/18 11:19:57;;;;;;;1.10;0.70;;;;;;;26.74;59.38;101421.69;5073105;28;20410;-75
2021/07/18 11:23:01;;;;;;;1.50;0.90;;;;;;;27.02;60.45;101412.66;5072794;28;20954;-74
2021/07/18 11:25:52;;;;;;;1.30;1.07;;;;;;;27.65;58.10;101425.88;5069874;28;20461;-75
2021/07/18 11:28:48;;;;;;;1.00;0.90;;;;;;;28.34;54.56;101430.19;5073125;28;20472;-75